sensor_id;sensor_type;location;lat;lon;timestamp;pressure;altitude;pressure_sealevel;temperature
11849;BMP180;5983;49.966;8.052;2022-07-03T00:00:07;100705.00;;;17.20
11849;BMP180;5983;49.966;8.052;2022-07-03T00:02:34;100709.00;;;17.20
11849;BMP180;5983;49.966;8.052;2022-07-03T00:05:01;100703.00;;;17.20
11849;BMP180;5983;49.966;8.052;2022-07-03T00:07:28;100708.00;;;17.10
11849;BMP180;5983;49.966;8.052;2022-07-03T00:09:55;100703.00;;;17.10
11849;BMP180;5983;49.966;8.052;2022-07-03T00:12:22;100701.00;;;17.10
11849;BMP180;5983;49.966;8.052;2022-07-03T00:14:49;100697.00;;;17.10
11849;BMP180;5983;49.966;8.052;2022-07-03T00:17:18;100706.00;;;17.00
11849;BMP180;5983;49.966;8.052;2022-07-03T00:19:45;100705.00;;;17.00
11849;BMP180;5983;49.966;8.052;2022-07-03T00:22:13;100699.00;;;17.00
11849;BMP180;5983;49.966;8.052;2022-07-03T00:24:44;100695.00;;;16.90
11849;BMP180;5983;49.966;8.052;2022-07-03T00:27:17;100688.00;;;16.90
11849;BMP180;5983;49.966;8.052;2022-07-03T00:29:45;100688.00;;;16.90
11849;BMP180;5983;49.966;8.052;2022-07-03T00:32:21;100695.00;;;16.90
11849;BMP180;5983;49.966;8.052;2022-07-03T00:34:52;100694.00;;;16.80
11849;BMP180;5983;49.966;8.052;2022-07-03T00:37:20;100693.00;;;16.80
11849;BMP180;5983;49.966;8.052;2022-07-03T00:39:48;100704.00;;;16.80
11849;BMP180;5983;49.966;8.052;2022-07-03T00:42:17;100693.00;;;16.70
11849;BMP180;5983;49.966;8.052;2022-07-03T00:44:46;100701.00;;;16.70
11849;BMP180;5983;49.966;8.052;2022-07-03T00:47:15;100698.00;;;16.70
11849;BMP180;5983;49.966;8.052;2022-07-03T00:49:46;100689.00;;;16.70
11849;BMP180;5983;49.966;8.052;2022-07-03T00:52:15;100697.00;;;16.70
11849;BMP180;5983;49.966;8.052;2022-07-03T00:54:45;100688.00;;;16.70
11849;BMP180;5983;49.966;8.052;2022-07-03T00:57:19;100685.00;;;16.60
11849;BMP180;5983;49.966;8.052;2022-07-03T00:59:47;100691.00;;;16.60
11849;BMP180;5983;49.966;8.052;2022-07-03T01:02:29;100693.00;;;16.50
11849;BMP180;5983;49.966;8.052;2022-07-03T01:05:10;100695.00;;;16.50
11849;BMP180;5983;49.966;8.052;2022-07-03T01:07:46;100701.00;;;16.40
11849;BMP180;5983;49.966;8.052;2022-07-03T01:10:27;100688.00;;;16.40
11849;BMP180;5983;49.966;8.052;2022-07-03T01:13:13;100692.00;;;16.40
11849;BMP180;5983;49.966;8.052;2022-07-03T01:15:51;100687.00;;;16.40
11849;BMP180;5983;49.966;8.052;2022-07-03T01:18:38;100685.00;;;16.40
11849;BMP180;5983;49.966;8.052;2022-07-03T01:21:10;100675.00;;;16.30
11849;BMP180;5983;49.966;8.052;2022-07-03T01:24:28;100669.00;;;16.20
11849;BMP180;5983;49.966;8.052;2022-07-03T01:27:10;100677.00;;;16.10
11849;BMP180;5983;49.966;8.052;2022-07-03T01:30:02;100663.00;;;16.10
11849;BMP180;5983;49.966;8.052;2022-07-03T01:32:45;100663.00;;;16.10
11849;BMP180;5983;49.966;8.052;2022-07-03T01:35:16;100666.00;;;16.10
11849;BMP180;5983;49.966;8.052;2022-07-03T01:37:50;100666.00;;;16.10
11849;BMP180;5983;49.966;8.052;2022-07-03T01:40:18;100655.00;;;16.10
11849;BMP180;5983;49.966;8.052;2022-07-03T01:42:50;100655.00;;;16.10
11849;BMP180;5983;49.966;8.052;2022-07-03T01:45:20;100660.00;;;16.10
11849;BMP180;5983;49.966;8.052;2022-07-03T01:47:49;100668.00;;;16.10
11849;BMP180;5983;49.966;8.052;2022-07-03T01:50:16;100664.00;;;16.00
11849;BMP180;5983;49.966;8.052;2022-07-03T01:52:45;100671.00;;;16.10
11849;BMP180;5983;49.966;8.052;2022-07-03T01:55:15;100674.00;;;16.00
11849;BMP180;5983;49.966;8.052;2022-07-03T01:57:46;100675.00;;;16.00
11849;BMP180;5983;49.966;8.052;2022-07-03T02:00:18;100671.00;;;16.00
11849;BMP180;5983;49.966;8.052;2022-07-03T02:02:57;100662.00;;;15.90
11849;BMP180;5983;49.966;8.052;2022-07-03T02:05:36;100671.00;;;15.90
11849;BMP180;5983;49.966;8.052;2022-07-03T02:08:27;100667.00;;;15.90
11849;BMP180;5983;49.966;8.052;2022-07-03T02:11:09;100665.00;;;15.90
11849;BMP180;5983;49.966;8.052;2022-07-03T02:13:51;100662.00;;;15.80
11849;BMP180;5983;49.966;8.052;2022-07-03T02:16:24;100671.00;;;15.80
11849;BMP180;5983;49.966;8.052;2022-07-03T02:18:58;100661.00;;;15.80
11849;BMP180;5983;49.966;8.052;2022-07-03T02:21:30;100664.00;;;15.80
11849;BMP180;5983;49.966;8.052;2022-07-03T02:24:14;100665.00;;;15.80
11849;BMP180;5983;49.966;8.052;2022-07-03T02:26:53;100664.00;;;15.70
11849;BMP180;5983;49.966;8.052;2022-07-03T02:29:30;100672.00;;;15.70
11849;BMP180;5983;49.966;8.052;2022-07-03T02:32:04;100668.00;;;15.60
11849;BMP180;5983;49.966;8.052;2022-07-03T02:34:35;100674.00;;;15.60
11849;BMP180;5983;49.966;8.052;2022-07-03T02:37:12;100667.00;;;15.60
11849;BMP180;5983;49.966;8.052;2022-07-03T02:40:00;100672.00;;;15.60
11849;BMP180;5983;49.966;8.052;2022-07-03T02:42:37;100668.00;;;15.50
11849;BMP180;5983;49.966;8.052;2022-07-03T02:45:08;100670.00;;;15.50
11849;BMP180;5983;49.966;8.052;2022-07-03T02:47:47;100665.00;;;15.50
11849;BMP180;5983;49.966;8.052;2022-07-03T02:50:20;100668.00;;;15.40
11849;BMP180;5983;49.966;8.052;2022-07-03T02:52:59;100664.00;;;15.40
11849;BMP180;5983;49.966;8.052;2022-07-03T02:55:40;100666.00;;;15.30
11849;BMP180;5983;49.966;8.052;2022-07-03T02:58:44;100666.00;;;15.20
11849;BMP180;5983;49.966;8.052;2022-07-03T03:01:29;100657.00;;;15.20
11849;BMP180;5983;49.966;8.052;2022-07-03T03:04:08;100672.00;;;15.10
11849;BMP180;5983;49.966;8.052;2022-07-03T03:06:37;100675.00;;;15.10
11849;BMP180;5983;49.966;8.052;2022-07-03T03:09:14;100677.00;;;15.10
11849;BMP180;5983;49.966;8.052;2022-07-03T03:11:47;100687.00;;;15.10
11849;BMP180;5983;49.966;8.052;2022-07-03T03:14:19;100672.00;;;15.00
11849;BMP180;5983;49.966;8.052;2022-07-03T03:16:50;100681.00;;;15.00
11849;BMP180;5983;49.966;8.052;2022-07-03T03:19:22;100682.00;;;14.90
11849;BMP180;5983;49.966;8.052;2022-07-03T03:24:41;100698.00;;;15.00
11849;BMP180;5983;49.966;8.052;2022-07-03T03:27:08;100692.00;;;15.00
11849;BMP180;5983;49.966;8.052;2022-07-03T03:29:36;100684.00;;;15.00
11849;BMP180;5983;49.966;8.052;2022-07-03T03:32:04;100687.00;;;15.00
11849;BMP180;5983;49.966;8.052;2022-07-03T03:34:33;100699.00;;;15.00
11849;BMP180;5983;49.966;8.052;2022-07-03T03:37:00;100694.00;;;15.00
11849;BMP180;5983;49.966;8.052;2022-07-03T03:39:28;100697.00;;;14.90
11849;BMP180;5983;49.966;8.052;2022-07-03T03:41:55;100694.00;;;14.90
11849;BMP180;5983;49.966;8.052;2022-07-03T03:44:22;100700.00;;;14.90
11849;BMP180;5983;49.966;8.052;2022-07-03T03:46:50;100707.00;;;14.80
11849;BMP180;5983;49.966;8.052;2022-07-03T03:49:17;100707.00;;;14.90
11849;BMP180;5983;49.966;8.052;2022-07-03T03:51:46;100699.00;;;14.90
11849;BMP180;5983;49.966;8.052;2022-07-03T03:54:13;100703.00;;;15.00
11849;BMP180;5983;49.966;8.052;2022-07-03T03:56:40;100704.00;;;15.00
11849;BMP180;5983;49.966;8.052;2022-07-03T03:59:07;100700.00;;;15.00
11849;BMP180;5983;49.966;8.052;2022-07-03T04:01:34;100705.00;;;15.00
11849;BMP180;5983;49.966;8.052;2022-07-03T04:04:01;100712.00;;;15.00
11849;BMP180;5983;49.966;8.052;2022-07-03T04:06:28;100712.00;;;15.00
11849;BMP180;5983;49.966;8.052;2022-07-03T04:08:56;100706.00;;;15.10
11849;BMP180;5983;49.966;8.052;2022-07-03T04:11:23;100705.00;;;15.10
11849;BMP180;5983;49.966;8.052;2022-07-03T04:13:50;100709.00;;;15.20
11849;BMP180;5983;49.966;8.052;2022-07-03T04:16:17;100705.00;;;15.20
11849;BMP180;5983;49.966;8.052;2022-07-03T04:18:44;100709.00;;;15.20
11849;BMP180;5983;49.966;8.052;2022-07-03T04:21:11;100704.00;;;15.30
11849;BMP180;5983;49.966;8.052;2022-07-03T04:23:37;100705.00;;;15.40
11849;BMP180;5983;49.966;8.052;2022-07-03T04:26:06;100699.00;;;15.40
11849;BMP180;5983;49.966;8.052;2022-07-03T04:28:33;100716.00;;;15.50
11849;BMP180;5983;49.966;8.052;2022-07-03T04:31:00;100725.00;;;15.50
11849;BMP180;5983;49.966;8.052;2022-07-03T04:33:27;100731.00;;;15.50
11849;BMP180;5983;49.966;8.052;2022-07-03T04:35:54;100731.00;;;15.60
11849;BMP180;5983;49.966;8.052;2022-07-03T04:38:21;100719.00;;;15.70
11849;BMP180;5983;49.966;8.052;2022-07-03T04:40:48;100718.00;;;15.70
11849;BMP180;5983;49.966;8.052;2022-07-03T04:43:16;100722.00;;;15.80
11849;BMP180;5983;49.966;8.052;2022-07-03T04:45:44;100719.00;;;15.90
11849;BMP180;5983;49.966;8.052;2022-07-03T04:48:10;100722.00;;;16.00
11849;BMP180;5983;49.966;8.052;2022-07-03T04:50:37;100727.00;;;16.10
11849;BMP180;5983;49.966;8.052;2022-07-03T04:53:05;100721.00;;;16.10
11849;BMP180;5983;49.966;8.052;2022-07-03T04:55:32;100718.00;;;16.20
11849;BMP180;5983;49.966;8.052;2022-07-03T04:57:59;100723.00;;;16.20
11849;BMP180;5983;49.966;8.052;2022-07-03T05:00:27;100728.00;;;16.30
11849;BMP180;5983;49.966;8.052;2022-07-03T05:02:54;100734.00;;;16.40
11849;BMP180;5983;49.966;8.052;2022-07-03T05:05:21;100735.00;;;16.40
11849;BMP180;5983;49.966;8.052;2022-07-03T05:07:49;100731.00;;;16.50
11849;BMP180;5983;49.966;8.052;2022-07-03T05:10:16;100737.00;;;16.50
11849;BMP180;5983;49.966;8.052;2022-07-03T05:12:43;100740.00;;;16.60
11849;BMP180;5983;49.966;8.052;2022-07-03T05:15:10;100745.00;;;16.70
11849;BMP180;5983;49.966;8.052;2022-07-03T05:17:39;100742.00;;;16.80
11849;BMP180;5983;49.966;8.052;2022-07-03T05:20:07;100731.00;;;16.90
11849;BMP180;5983;49.966;8.052;2022-07-03T05:22:56;100735.00;;;17.00
11849;BMP180;5983;49.966;8.052;2022-07-03T05:25:24;100733.00;;;17.10
11849;BMP180;5983;49.966;8.052;2022-07-03T05:27:52;100736.00;;;17.10
11849;BMP180;5983;49.966;8.052;2022-07-03T05:30:21;100741.00;;;17.20
11849;BMP180;5983;49.966;8.052;2022-07-03T05:32:49;100745.00;;;17.30
11849;BMP180;5983;49.966;8.052;2022-07-03T05:35:17;100738.00;;;17.40
11849;BMP180;5983;49.966;8.052;2022-07-03T05:37:45;100728.00;;;17.50
11849;BMP180;5983;49.966;8.052;2022-07-03T05:40:12;100735.00;;;17.60
11849;BMP180;5983;49.966;8.052;2022-07-03T05:42:39;100732.00;;;17.70
11849;BMP180;5983;49.966;8.052;2022-07-03T05:45:08;100737.00;;;17.70
11849;BMP180;5983;49.966;8.052;2022-07-03T05:47:35;100739.00;;;17.80
11849;BMP180;5983;49.966;8.052;2022-07-03T05:50:04;100744.00;;;17.90
11849;BMP180;5983;49.966;8.052;2022-07-03T05:52:31;100747.00;;;18.00
11849;BMP180;5983;49.966;8.052;2022-07-03T05:54:58;100735.00;;;18.10
11849;BMP180;5983;49.966;8.052;2022-07-03T05:57:25;100740.00;;;18.20
11849;BMP180;5983;49.966;8.052;2022-07-03T05:59:52;100744.00;;;18.30
11849;BMP180;5983;49.966;8.052;2022-07-03T06:02:19;100739.00;;;18.40
11849;BMP180;5983;49.966;8.052;2022-07-03T06:04:46;100741.00;;;18.50
11849;BMP180;5983;49.966;8.052;2022-07-03T06:07:14;100744.00;;;18.60
11849;BMP180;5983;49.966;8.052;2022-07-03T06:09:42;100742.00;;;18.80
11849;BMP180;5983;49.966;8.052;2022-07-03T06:12:10;100741.00;;;18.90
11849;BMP180;5983;49.966;8.052;2022-07-03T06:14:37;100750.00;;;19.00
11849;BMP180;5983;49.966;8.052;2022-07-03T06:17:04;100746.00;;;19.10
11849;BMP180;5983;49.966;8.052;2022-07-03T06:19:33;100744.00;;;19.20
11849;BMP180;5983;49.966;8.052;2022-07-03T06:22:00;100746.00;;;19.30
11849;BMP180;5983;49.966;8.052;2022-07-03T06:24:28;100752.00;;;19.40
11849;BMP180;5983;49.966;8.052;2022-07-03T06:26:55;100749.00;;;19.50
11849;BMP180;5983;49.966;8.052;2022-07-03T06:29:25;100748.00;;;19.70
11849;BMP180;5983;49.966;8.052;2022-07-03T06:31:52;100754.00;;;19.80
11849;BMP180;5983;49.966;8.052;2022-07-03T06:34:19;100758.00;;;19.80
11849;BMP180;5983;49.966;8.052;2022-07-03T06:36:48;100759.00;;;19.90
11849;BMP180;5983;49.966;8.052;2022-07-03T06:39:15;100752.00;;;20.00
11849;BMP180;5983;49.966;8.052;2022-07-03T06:41:48;100750.00;;;20.10
11849;BMP180;5983;49.966;8.052;2022-07-03T06:44:16;100750.00;;;20.20
11849;BMP180;5983;49.966;8.052;2022-07-03T06:46:45;100745.00;;;20.30
11849;BMP180;5983;49.966;8.052;2022-07-03T06:49:12;100746.00;;;20.40
11849;BMP180;5983;49.966;8.052;2022-07-03T06:51:39;100751.00;;;20.50
11849;BMP180;5983;49.966;8.052;2022-07-03T06:54:06;100753.00;;;20.60
11849;BMP180;5983;49.966;8.052;2022-07-03T06:56:33;100756.00;;;20.70
11849;BMP180;5983;49.966;8.052;2022-07-03T06:59:02;100754.00;;;20.70
11849;BMP180;5983;49.966;8.052;2022-07-03T07:01:29;100755.00;;;20.80
11849;BMP180;5983;49.966;8.052;2022-07-03T07:03:56;100753.00;;;20.90
11849;BMP180;5983;49.966;8.052;2022-07-03T07:06:23;100758.00;;;21.00
11849;BMP180;5983;49.966;8.052;2022-07-03T07:08:50;100759.00;;;21.10
11849;BMP180;5983;49.966;8.052;2022-07-03T07:11:17;100759.00;;;21.20
11849;BMP180;5983;49.966;8.052;2022-07-03T07:13:45;100765.00;;;21.30
11849;BMP180;5983;49.966;8.052;2022-07-03T07:16:13;100762.00;;;21.40
11849;BMP180;5983;49.966;8.052;2022-07-03T07:18:41;100765.00;;;21.50
11849;BMP180;5983;49.966;8.052;2022-07-03T07:21:09;100766.00;;;21.60
11849;BMP180;5983;49.966;8.052;2022-07-03T07:23:36;100760.00;;;21.70
11849;BMP180;5983;49.966;8.052;2022-07-03T07:26:04;100764.00;;;21.90
11849;BMP180;5983;49.966;8.052;2022-07-03T07:28:31;100766.00;;;22.00
11849;BMP180;5983;49.966;8.052;2022-07-03T07:31:00;100764.00;;;22.10
11849;BMP180;5983;49.966;8.052;2022-07-03T07:33:29;100758.00;;;22.20
11849;BMP180;5983;49.966;8.052;2022-07-03T07:35:56;100756.00;;;22.20
11849;BMP180;5983;49.966;8.052;2022-07-03T07:38:23;100749.00;;;22.30
11849;BMP180;5983;49.966;8.052;2022-07-03T07:40:50;100751.00;;;22.40
11849;BMP180;5983;49.966;8.052;2022-07-03T07:43:17;100755.00;;;22.50
11849;BMP180;5983;49.966;8.052;2022-07-03T07:45:44;100743.00;;;22.60
11849;BMP180;5983;49.966;8.052;2022-07-03T07:48:11;100755.00;;;22.70
11849;BMP180;5983;49.966;8.052;2022-07-03T07:50:39;100757.00;;;22.80
11849;BMP180;5983;49.966;8.052;2022-07-03T07:53:06;100754.00;;;22.90
11849;BMP180;5983;49.966;8.052;2022-07-03T07:55:33;100752.00;;;23.00
11849;BMP180;5983;49.966;8.052;2022-07-03T07:58:00;100752.00;;;23.20
11849;BMP180;5983;49.966;8.052;2022-07-03T08:00:27;100756.00;;;23.20
11849;BMP180;5983;49.966;8.052;2022-07-03T08:02:54;100740.00;;;23.40
11849;BMP180;5983;49.966;8.052;2022-07-03T08:05:40;100746.00;;;23.50
11849;BMP180;5983;49.966;8.052;2022-07-03T08:08:09;100752.00;;;23.60
11849;BMP180;5983;49.966;8.052;2022-07-03T08:10:39;100741.00;;;23.60
11849;BMP180;5983;49.966;8.052;2022-07-03T08:13:07;100748.00;;;23.80
11849;BMP180;5983;49.966;8.052;2022-07-03T08:15:34;100750.00;;;23.90
11849;BMP180;5983;49.966;8.052;2022-07-03T08:18:03;100741.00;;;24.00
11849;BMP180;5983;49.966;8.052;2022-07-03T08:20:30;100739.00;;;24.10
11849;BMP180;5983;49.966;8.052;2022-07-03T08:22:58;100747.00;;;24.30
11849;BMP180;5983;49.966;8.052;2022-07-03T08:25:26;100741.00;;;24.40
11849;BMP180;5983;49.966;8.052;2022-07-03T08:27:53;100739.00;;;24.60
11849;BMP180;5983;49.966;8.052;2022-07-03T08:30:20;100736.00;;;24.70
11849;BMP180;5983;49.966;8.052;2022-07-03T08:32:49;100737.00;;;24.80
11849;BMP180;5983;49.966;8.052;2022-07-03T08:35:17;100743.00;;;25.00
11849;BMP180;5983;49.966;8.052;2022-07-03T08:37:44;100743.00;;;25.20
11849;BMP180;5983;49.966;8.052;2022-07-03T08:40:16;100746.00;;;25.30
11849;BMP180;5983;49.966;8.052;2022-07-03T08:42:46;100740.00;;;25.40
11849;BMP180;5983;49.966;8.052;2022-07-03T08:45:15;100738.00;;;25.60
11849;BMP180;5983;49.966;8.052;2022-07-03T08:47:43;100742.00;;;25.70
11849;BMP180;5983;49.966;8.052;2022-07-03T08:50:13;100749.00;;;25.80
11849;BMP180;5983;49.966;8.052;2022-07-03T08:52:42;100741.00;;;25.90
11849;BMP180;5983;49.966;8.052;2022-07-03T08:55:11;100741.00;;;26.00
11849;BMP180;5983;49.966;8.052;2022-07-03T08:57:43;100739.00;;;26.10
11849;BMP180;5983;49.966;8.052;2022-07-03T09:00:14;100746.00;;;26.20
11849;BMP180;5983;49.966;8.052;2022-07-03T09:02:45;100743.00;;;26.30
11849;BMP180;5983;49.966;8.052;2022-07-03T09:05:15;100735.00;;;26.40
11849;BMP180;5983;49.966;8.052;2022-07-03T09:07:44;100728.00;;;26.40
11849;BMP180;5983;49.966;8.052;2022-07-03T09:10:16;100730.00;;;26.60
11849;BMP180;5983;49.966;8.052;2022-07-03T09:12:47;100723.00;;;26.70
11849;BMP180;5983;49.966;8.052;2022-07-03T09:15:15;100725.00;;;26.90
11849;BMP180;5983;49.966;8.052;2022-07-03T09:17:57;100739.00;;;27.00
11849;BMP180;5983;49.966;8.052;2022-07-03T09:20:33;100730.00;;;27.00
11849;BMP180;5983;49.966;8.052;2022-07-03T09:23:15;100736.00;;;27.10
11849;BMP180;5983;49.966;8.052;2022-07-03T09:25:55;100737.00;;;27.20
11849;BMP180;5983;49.966;8.052;2022-07-03T09:28:40;100734.00;;;27.30
11849;BMP180;5983;49.966;8.052;2022-07-03T09:31:10;100736.00;;;27.40
11849;BMP180;5983;49.966;8.052;2022-07-03T09:33:53;100739.00;;;27.50
11849;BMP180;5983;49.966;8.052;2022-07-03T09:36:22;100725.00;;;27.50
11849;BMP180;5983;49.966;8.052;2022-07-03T09:38:50;100735.00;;;27.50
11849;BMP180;5983;49.966;8.052;2022-07-03T09:41:17;100743.00;;;27.60
11849;BMP180;5983;49.966;8.052;2022-07-03T09:43:45;100742.00;;;27.70
11849;BMP180;5983;49.966;8.052;2022-07-03T09:46:12;100734.00;;;27.80
11849;BMP180;5983;49.966;8.052;2022-07-03T09:48:41;100736.00;;;27.80
11849;BMP180;5983;49.966;8.052;2022-07-03T09:51:16;100727.00;;;27.90
11849;BMP180;5983;49.966;8.052;2022-07-03T09:53:49;100727.00;;;27.90
11849;BMP180;5983;49.966;8.052;2022-07-03T09:56:16;100725.00;;;27.90
11849;BMP180;5983;49.966;8.052;2022-07-03T09:59:10;100729.00;;;28.00
11849;BMP180;5983;49.966;8.052;2022-07-03T10:01:40;100722.00;;;28.10
11849;BMP180;5983;49.966;8.052;2022-07-03T10:04:14;100725.00;;;28.10
11849;BMP180;5983;49.966;8.052;2022-07-03T10:06:52;100723.00;;;28.30
11849;BMP180;5983;49.966;8.052;2022-07-03T10:09:22;100721.00;;;28.40
11849;BMP180;5983;49.966;8.052;2022-07-03T10:11:50;100728.00;;;28.50
11849;BMP180;5983;49.966;8.052;2022-07-03T10:14:20;100720.00;;;28.70
11849;BMP180;5983;49.966;8.052;2022-07-03T10:16:48;100728.00;;;28.80
11849;BMP180;5983;49.966;8.052;2022-07-03T10:19:18;100708.00;;;28.90
11849;BMP180;5983;49.966;8.052;2022-07-03T10:21:52;100715.00;;;29.00
11849;BMP180;5983;49.966;8.052;2022-07-03T10:24:22;100713.00;;;29.00
11849;BMP180;5983;49.966;8.052;2022-07-03T10:26:50;100729.00;;;29.10
11849;BMP180;5983;49.966;8.052;2022-07-03T10:29:21;100726.00;;;29.20
11849;BMP180;5983;49.966;8.052;2022-07-03T10:31:49;100724.00;;;29.30
11849;BMP180;5983;49.966;8.052;2022-07-03T10:34:18;100719.00;;;29.30
11849;BMP180;5983;49.966;8.052;2022-07-03T10:36:49;100710.00;;;29.20
11849;BMP180;5983;49.966;8.052;2022-07-03T10:39:32;100719.00;;;29.20
11849;BMP180;5983;49.966;8.052;2022-07-03T10:42:03;100719.00;;;29.30
11849;BMP180;5983;49.966;8.052;2022-07-03T10:45:06;100712.00;;;29.50
11849;BMP180;5983;49.966;8.052;2022-07-03T10:47:40;100725.00;;;29.70
11849;BMP180;5983;49.966;8.052;2022-07-03T10:50:11;100720.00;;;29.80
11849;BMP180;5983;49.966;8.052;2022-07-03T10:52:40;100720.00;;;30.00
11849;BMP180;5983;49.966;8.052;2022-07-03T10:55:09;100722.00;;;30.10
11849;BMP180;5983;49.966;8.052;2022-07-03T10:57:37;100717.00;;;30.10
11849;BMP180;5983;49.966;8.052;2022-07-03T11:00:17;100716.00;;;30.10
11849;BMP180;5983;49.966;8.052;2022-07-03T11:02:51;100717.00;;;30.00
11849;BMP180;5983;49.966;8.052;2022-07-03T11:05:24;100709.00;;;29.80
11849;BMP180;5983;49.966;8.052;2022-07-03T11:08:13;100716.00;;;29.50
11849;BMP180;5983;49.966;8.052;2022-07-03T11:10:43;100718.00;;;29.30
11849;BMP180;5983;49.966;8.052;2022-07-03T11:13:14;100711.00;;;29.10
11849;BMP180;5983;49.966;8.052;2022-07-03T11:15:51;100708.00;;;29.20
11849;BMP180;5983;49.966;8.052;2022-07-03T11:18:24;100706.00;;;29.30
11849;BMP180;5983;49.966;8.052;2022-07-03T11:21:21;100700.00;;;29.50
11849;BMP180;5983;49.966;8.052;2022-07-03T11:24:17;100698.00;;;29.70
11849;BMP180;5983;49.966;8.052;2022-07-03T11:26:46;100685.00;;;29.70
11849;BMP180;5983;49.966;8.052;2022-07-03T11:29:37;100687.00;;;29.80
11849;BMP180;5983;49.966;8.052;2022-07-03T11:32:50;100687.00;;;29.80
11849;BMP180;5983;49.966;8.052;2022-07-03T11:35:43;100678.00;;;29.90
11849;BMP180;5983;49.966;8.052;2022-07-03T11:38:12;100672.00;;;30.00
11849;BMP180;5983;49.966;8.052;2022-07-03T11:40:42;100664.00;;;30.10
11849;BMP180;5983;49.966;8.052;2022-07-03T11:43:10;100663.00;;;30.20
11849;BMP180;5983;49.966;8.052;2022-07-03T11:45:38;100666.00;;;30.30
11849;BMP180;5983;49.966;8.052;2022-07-03T11:48:11;100656.00;;;30.20
11849;BMP180;5983;49.966;8.052;2022-07-03T11:50:40;100663.00;;;30.10
11849;BMP180;5983;49.966;8.052;2022-07-03T11:53:27;100654.00;;;30.00
11849;BMP180;5983;49.966;8.052;2022-07-03T11:55:59;100646.00;;;30.00
11849;BMP180;5983;49.966;8.052;2022-07-03T11:58:41;100660.00;;;30.10
11849;BMP180;5983;49.966;8.052;2022-07-03T12:01:10;100653.00;;;30.30
11849;BMP180;5983;49.966;8.052;2022-07-03T12:03:39;100654.00;;;30.40
11849;BMP180;5983;49.966;8.052;2022-07-03T12:06:05;100657.00;;;30.40
11849;BMP180;5983;49.966;8.052;2022-07-03T12:08:33;100653.00;;;30.40
11849;BMP180;5983;49.966;8.052;2022-07-03T12:11:06;100655.00;;;30.60
11849;BMP180;5983;49.966;8.052;2022-07-03T12:13:34;100653.00;;;30.70
11849;BMP180;5983;49.966;8.052;2022-07-03T12:16:07;100650.00;;;30.80
11849;BMP180;5983;49.966;8.052;2022-07-03T12:18:44;100654.00;;;30.80
11849;BMP180;5983;49.966;8.052;2022-07-03T12:21:13;100657.00;;;30.70
11849;BMP180;5983;49.966;8.052;2022-07-03T12:23:46;100647.00;;;30.60
11849;BMP180;5983;49.966;8.052;2022-07-03T12:26:14;100653.00;;;30.70
11849;BMP180;5983;49.966;8.052;2022-07-03T12:28:53;100651.00;;;30.90
11849;BMP180;5983;49.966;8.052;2022-07-03T12:31:20;100644.00;;;31.00
11849;BMP180;5983;49.966;8.052;2022-07-03T12:33:49;100648.00;;;31.20
11849;BMP180;5983;49.966;8.052;2022-07-03T12:36:17;100640.00;;;31.30
11849;BMP180;5983;49.966;8.052;2022-07-03T12:38:47;100640.00;;;31.20
11849;BMP180;5983;49.966;8.052;2022-07-03T12:41:16;100638.00;;;31.30
11849;BMP180;5983;49.966;8.052;2022-07-03T12:43:46;100630.00;;;31.30
11849;BMP180;5983;49.966;8.052;2022-07-03T12:46:21;100633.00;;;31.30
11849;BMP180;5983;49.966;8.052;2022-07-03T12:48:52;100626.00;;;31.30
11849;BMP180;5983;49.966;8.052;2022-07-03T12:51:40;100632.00;;;31.40
11849;BMP180;5983;49.966;8.052;2022-07-03T12:54:09;100623.00;;;31.20
11849;BMP180;5983;49.966;8.052;2022-07-03T12:56:40;100628.00;;;30.90
11849;BMP180;5983;49.966;8.052;2022-07-03T12:59:23;100625.00;;;30.80
11849;BMP180;5983;49.966;8.052;2022-07-03T13:02:02;100622.00;;;30.60
11849;BMP180;5983;49.966;8.052;2022-07-03T13:04:35;100615.00;;;30.70
11849;BMP180;5983;49.966;8.052;2022-07-03T13:07:06;100623.00;;;30.70
11849;BMP180;5983;49.966;8.052;2022-07-03T13:09:33;100621.00;;;30.80
11849;BMP180;5983;49.966;8.052;2022-07-03T13:12:01;100619.00;;;30.90
11849;BMP180;5983;49.966;8.052;2022-07-03T13:14:30;100616.00;;;31.00
11849;BMP180;5983;49.966;8.052;2022-07-03T13:16:58;100613.00;;;31.10
11849;BMP180;5983;49.966;8.052;2022-07-03T13:19:27;100611.00;;;31.20
11849;BMP180;5983;49.966;8.052;2022-07-03T13:21:58;100605.00;;;31.00
11849;BMP180;5983;49.966;8.052;2022-07-03T13:24:26;100607.00;;;30.80
11849;BMP180;5983;49.966;8.052;2022-07-03T13:26:54;100617.00;;;30.60
11849;BMP180;5983;49.966;8.052;2022-07-03T13:29:21;100610.00;;;30.50
11849;BMP180;5983;49.966;8.052;2022-07-03T13:31:49;100611.00;;;30.30
11849;BMP180;5983;49.966;8.052;2022-07-03T13:34:17;100609.00;;;30.20
11849;BMP180;5983;49.966;8.052;2022-07-03T13:36:44;100601.00;;;30.30
11849;BMP180;5983;49.966;8.052;2022-07-03T13:39:12;100606.00;;;30.40
11849;BMP180;5983;49.966;8.052;2022-07-03T13:41:41;100600.00;;;30.50
11849;BMP180;5983;49.966;8.052;2022-07-03T13:44:08;100592.00;;;30.60
11849;BMP180;5983;49.966;8.052;2022-07-03T13:46:35;100600.00;;;30.60
11849;BMP180;5983;49.966;8.052;2022-07-03T13:49:02;100598.00;;;30.70
11849;BMP180;5983;49.966;8.052;2022-07-03T13:51:29;100602.00;;;30.70
11849;BMP180;5983;49.966;8.052;2022-07-03T13:53:56;100604.00;;;30.70
11849;BMP180;5983;49.966;8.052;2022-07-03T13:56:24;100609.00;;;30.60
11849;BMP180;5983;49.966;8.052;2022-07-03T13:58:51;100601.00;;;30.60
11849;BMP180;5983;49.966;8.052;2022-07-03T14:01:19;100592.00;;;30.40
11849;BMP180;5983;49.966;8.052;2022-07-03T14:03:46;100588.00;;;30.40
11849;BMP180;5983;49.966;8.052;2022-07-03T14:06:13;100590.00;;;30.30
11849;BMP180;5983;49.966;8.052;2022-07-03T14:08:40;100594.00;;;30.30
11849;BMP180;5983;49.966;8.052;2022-07-03T14:11:07;100582.00;;;30.30
11849;BMP180;5983;49.966;8.052;2022-07-03T14:13:36;100574.00;;;30.40
11849;BMP180;5983;49.966;8.052;2022-07-03T14:16:04;100581.00;;;30.40
11849;BMP180;5983;49.966;8.052;2022-07-03T14:18:31;100583.00;;;30.40
11849;BMP180;5983;49.966;8.052;2022-07-03T14:20:58;100576.00;;;30.40
11849;BMP180;5983;49.966;8.052;2022-07-03T14:23:24;100579.00;;;30.40
11849;BMP180;5983;49.966;8.052;2022-07-03T14:25:51;100577.00;;;30.40
11849;BMP180;5983;49.966;8.052;2022-07-03T14:28:21;100578.00;;;30.30
11849;BMP180;5983;49.966;8.052;2022-07-03T14:31:07;100574.00;;;30.30
11849;BMP180;5983;49.966;8.052;2022-07-03T14:33:53;100586.00;;;30.10